Time;durP1;ratioP1;P1;durP2;ratioP2;P2;SDS_P1;SDS_P2;PMS_P1;PMS_P2;Temp;Humidity;BMP_temperature;BMP_pressure;BME280_temperature;BME280_humidity;BME280_pressure;Samples;Min_cycle;Max_cycle;Signal;HPM_P1;HPM_P2
2023/04/24 00:01:56;;;;;;;8.27;5.53;;;;;;;9.47;100.00;99666.84;4984352;28;20125;-71
2023/04/24 00:04:21;;;;;;;7.80;5.22;;;;;;;9.47;100.00;99669.50;4985885;28;20030;-71
2023/04/24 00:06:53;;;;;;;8.25;6.07;;;;;;;9.47;100.00;99666.84;4982898;28;20038;-71
2023/04/24 00:09:18;;;;;;;9.02;6.03;;;;;;;9.46;100.00;99668.66;4984277;28;20041;-71
2023/04/24 00:11:44;;;;;;;9.13;6.22;;;;;;;9.48;100.00;99664.13;4985492;28;20050;-71
2023/04/24 00:14:09;;;;;;;10.15;6.03;;;;;;;9.48;100.00;99661.47;4980048;28;20034;-70
2023/04/24 00:16:35;;;;;;;10.05;6.20;;;;;;;9.49;100.00;99657.06;4983447;28;20754;-70
2023/04/24 00:19:00;;;;;;;10.57;7.05;;;;;;;9.51;100.00;99653.38;4984267;28;20453;-71
2023/04/24 00:21:26;;;;;;;10.90;7.00;;;;;;;9.53;100.00;99653.28;4985112;28;20085;-71
2023/04/24 00:23:55;;;;;;;10.93;6.60;;;;;;;9.54;100.00;99649.72;4972910;28;20683;-71
2023/04/24 00:26:21;;;;;;;9.70;6.72;;;;;;;9.54;100.00;99656.78;4980936;28;20162;-71
2023/04/24 00:28:46;;;;;;;9.68;6.40;;;;;;;9.52;100.00;99654.22;4985348;28;20223;-71
2023/04/24 00:31:12;;;;;;;9.70;6.65;;;;;;;9.52;100.00;99654.22;4981881;28;20068;-71
2023/04/24 00:33:37;;;;;;;10.15;7.03;;;;;;;9.53;100.00;99653.28;4995921;28;20427;-71
2023/04/24 00:36:03;;;;;;;10.63;7.57;;;;;;;9.54;100.00;99651.50;4984662;28;20077;-71
2023/04/24 00:38:28;;;;;;;9.75;6.07;;;;;;;9.53;100.00;99655.06;4986481;28;20117;-71
2023/04/24 00:40:54;;;;;;;8.50;6.15;;;;;;;9.53;100.00;99647.16;4986118;28;20603;-71
2023/04/24 00:43:20;;;;;;;11.13;7.22;;;;;;;9.52;100.00;99643.66;4966492;28;20062;-71
2023/04/24 00:45:46;;;;;;;9.65;6.57;;;;;;;9.51;100.00;99652.53;4979820;28;20720;-71
2023/04/24 00:48:12;;;;;;;10.43;7.00;;;;;;;9.49;100.00;99646.50;4979654;28;20045;-71
2023/04/24 00:50:38;;;;;;;10.80;6.65;;;;;;;9.49;100.00;99649.13;4966631;28;20053;-71
2023/04/24 00:53:04;;;;;;;9.95;6.55;;;;;;;9.47;100.00;99643.94;4985550;28;21789;-71
2023/04/24 00:55:30;;;;;;;8.45;6.18;;;;;;;9.47;100.00;99638.66;4983174;28;20022;-71
2023/04/24 00:57:55;;;;;;;10.30;6.90;;;;;;;9.47;100.00;99640.44;4983358;28;20048;-71
2023/04/24 01:00:22;;;;;;;10.85;7.05;;;;;;;9.48;100.00;99639.50;4983279;28;20054;-71
2023/04/24 01:02:48;;;;;;;8.82;6.20;;;;;;;9.47;100.00;99641.28;4983770;28;20038;-71
2023/04/24 01:05:14;;;;;;;11.48;6.75;;;;;;;9.49;100.00;99638.56;4983356;28;20136;-71
2023/04/24 01:07:45;;;;;;;9.80;6.45;;;;;;;9.51;100.00;99639.31;4983254;28;21428;-71
2023/04/24 01:10:11;;;;;;;10.43;6.75;;;;;;;9.48;100.00;99636.88;4986086;28;20063;-71
2023/04/24 01:12:37;;;;;;;9.70;6.32;;;;;;;9.49;100.00;99641.22;4981436;28;20056;-71
2023/04/24 01:15:03;;;;;;;11.63;7.32;;;;;;;9.50;100.00;99645.53;4983809;28;20508;-71
2023/04/24 01:17:29;;;;;;;12.10;7.32;;;;;;;9.48;100.00;99639.50;4983831;28;20038;-71
2023/04/24 01:19:57;;;;;;;11.60;7.50;;;;;;;9.48;100.00;99639.50;4982363;28;20044;-71
2023/04/24 01:22:22;;;;;;;10.07;6.97;;;;;;;9.48;100.00;99634.22;4998676;28;20111;-71
2023/04/24 01:24:48;;;;;;;11.02;7.00;;;;;;;9.47;100.00;99638.66;4978850;28;21056;-71
2023/04/24 01:27:14;;;;;;;10.93;6.93;;;;;;;9.46;100.00;99638.72;4978962;28;20057;-71
2023/04/24 01:29:40;;;;;;;9.60;6.80;;;;;;;9.46;100.00;99636.09;4979945;28;20544;-71
2023/04/24 01:32:06;;;;;;;12.98;7.38;;;;;;;9.46;100.00;99641.38;4981626;28;20032;-71
2023/04/24 01:34:32;;;;;;;11.00;7.47;;;;;;;9.46;100.00;99641.38;4983923;28;20042;-71
2023/04/24 01:36:58;;;;;;;11.68;7.22;;;;;;;9.46;100.00;99638.72;4982640;28;20797;-71
2023/04/24 01:39:25;;;;;;;12.60;7.40;;;;;;;9.46;100.00;99636.09;4983076;28;20037;-71
2023/04/24 01:41:51;;;;;;;10.57;6.93;;;;;;;9.45;100.00;99634.41;4963251;28;20100;-71
2023/04/24 01:44:17;;;;;;;10.32;6.28;;;;;;;9.43;100.00;99629.19;4992573;28;20030;-71
2023/04/24 01:46:43;;;;;;;10.27;6.70;;;;;;;9.40;100.00;99634.69;4981254;28;20163;-72
2023/04/24 01:49:09;;;;;;;9.10;6.28;;;;;;;9.38;100.00;99634.75;4981722;28;20147;-71
2023/04/24 01:51:34;;;;;;;10.50;5.80;;;;;;;9.36;100.00;99636.66;4980864;28;20116;-71
2023/04/24 01:54:00;;;;;;;8.20;5.75;;;;;;;9.35;100.00;99639.38;4979366;28;20585;-71
2023/04/24 01:56:25;;;;;;;7.72;5.10;;;;;;;9.33;100.00;99643.91;4985751;28;20060;-71
2023/04/24 01:58:52;;;;;;;8.45;5.22;;;;;;;9.32;100.00;99635.13;4981368;28;20042;-71
2023/04/24 02:01:19;;;;;;;8.55;5.55;;;;;;;9.31;100.00;99643.16;4985844;28;20342;-71
2023/04/24 02:03:44;;;;;;;8.40;5.47;;;;;;;9.30;100.00;99647.59;4968506;28;20128;-71
2023/04/24 02:06:10;;;;;;;8.05;5.35;;;;;;;9.29;100.00;99640.59;4987103;28;20132;-71
2023/04/24 02:08:35;;;;;;;8.77;5.05;;;;;;;9.29;100.00;99639.75;4987481;28;20571;-71
2023/04/24 02:11:02;;;;;;;8.05;5.18;;;;;;;9.28;100.00;99638.91;4987908;28;20052;-71
2023/04/24 02:13:28;;;;;;;7.15;5.05;;;;;;;9.29;100.00;99639.75;4984010;28;20046;-71
2023/04/24 02:15:53;;;;;;;9.43;5.28;;;;;;;9.28;100.00;99652.13;4969284;28;20038;-71
2023/04/24 02:18:19;;;;;;;9.15;5.15;;;;;;;9.28;100.00;99641.53;4988117;28;20077;-71
2023/04/24 02:20:45;;;;;;;8.20;5.72;;;;;;;9.28;100.00;99652.13;4987307;28;20180;-71
2023/04/24 02:23:10;;;;;;;7.88;5.25;;;;;;;9.28;100.00;99644.19;4985980;28;22094;-71
2023/04/24 02:25:36;;;;;;;12.90;5.85;;;;;;;9.27;100.00;99645.13;4969278;28;20852;-71
2023/04/24 02:28:02;;;;;;;8.38;5.50;;;;;;;9.27;100.00;99653.06;4986181;28;20042;-71
2023/04/24 02:30:28;;;;;;;9.90;5.80;;;;;;;9.27;100.00;99655.69;4986923;28;20504;-71
2023/04/24 02:32:54;;;;;;;9.77;5.57;;;;;;;9.28;100.00;99656.53;4978581;28;20046;-71
2023/04/24 02:35:19;;;;;;;9.07;5.78;;;;;;;9.29;100.00;99655.59;4985036;28;20251;-71
2023/04/24 02:37:45;;;;;;;10.05;6.30;;;;;;;9.29;100.00;99660.88;4984454;28;20034;-71
2023/04/24 02:40:11;;;;;;;6.35;4.35;;;;;;;9.29;100.00;99661.72;4988409;28;20494;-71
2023/04/24 02:42:36;;;;;;;6.25;4.45;;;;;;;9.27;100.00;99660.13;4986461;28;20173;-71
2023/04/24 02:45:02;;;;;;;7.38;4.85;;;;;;;9.22;100.00;99657.75;4986966;28;20064;-70
2023/04/24 02:47:28;;;;;;;7.32;4.63;;;;;;;9.17;100.00;99657.16;4988228;28;20045;-71
2023/04/24 02:49:53;;;;;;;6.57;4.50;;;;;;;9.10;100.00;99661.97;4983960;28;20042;-71
2023/04/24 02:52:18;;;;;;;6.82;3.85;;;;;;;9.05;100.00;99664.84;4984377;28;20850;-71
2023/04/24 02:54:44;;;;;;;5.28;3.53;;;;;;;9.01;100.00;99663.34;5002549;28;20046;-71
2023/04/24 02:57:10;;;;;;;5.40;3.38;;;;;;;8.96;100.00;99668.03;4985345;28;20057;-71
2023/04/24 02:59:35;;;;;;;6.13;3.38;;;;;;;8.93;100.00;99665.59;4984118;28;20493;-72
2023/04/24 03:02:01;;;;;;;5.60;3.42;;;;;;;8.91;100.00;99667.44;4983606;28;20046;-72
2023/04/24 03:04:26;;;;;;;6.07;3.15;;;;;;;8.88;100.00;99667.63;4987814;28;20061;-72
2023/04/24 03:06:54;;;;;;;4.15;2.75;;;;;;;8.87;100.00;99668.56;4985204;28;20045;-72
2023/04/24 03:09:20;;;;;;;3.58;2.55;;;;;;;8.82;100.00;99667.03;4987297;28;20195;-72
2023/04/24 03:11:46;;;;;;;4.10;2.67;;;;;;;8.80;100.00;99670.69;4988113;28;20334;-72
2023/04/24 03:14:12;;;;;;;3.08;2.20;;;;;;;8.79;100.00;99672.50;4985027;28;20080;-72
2023/04/24 03:16:37;;;;;;;4.18;2.65;;;;;;;8.79;100.00;99679.56;4982197;28;20038;-72
2023/04/24 03:19:03;;;;;;;3.42;2.67;;;;;;;8.77;100.00;99674.34;4983234;28;20052;-72
2023/04/24 03:21:28;;;;;;;4.75;2.95;;;;;;;8.77;100.00;99681.44;4986297;28;20062;-72
2023/04/24 03:23:54;;;;;;;4.90;3.03;;;;;;;8.76;100.00;99680.56;5001178;28;20042;-71
2023/04/24 03:26:23;;;;;;;4.38;3.03;;;;;;;8.75;100.00;99683.28;4984171;28;20112;-72
2023/04/24 03:28:48;;;;;;;4.68;3.00;;;;;;;8.75;100.00;99693.84;4984981;28;20045;-72
2023/04/24 03:31:15;;;;;;;4.30;2.97;;;;;;;8.74;100.00;99689.50;4984985;28;20034;-72
2023/04/24 03:33:40;;;;;;;4.78;3.45;;;;;;;8.74;100.00;99694.78;4985920;28;20571;-75
2023/04/24 03:36:06;;;;;;;5.25;3.58;;;;;;;8.72;100.00;99692.22;4984056;28;20034;-72
2023/04/24 03:38:32;;;;;;;6.75;4.20;;;;;;;8.73;100.00;99696.59;4979412;28;20892;-72
2023/04/24 03:40:57;;;;;;;10.48;4.63;;;;;;;8.71;100.00;99690.53;4984804;28;20046;-72
2023/04/24 03:43:23;;;;;;;6.22;4.28;;;;;;;8.71;100.00;99697.63;4983733;28;20469;-72
2023/04/24 03:45:49;;;;;;;9.77;5.00;;;;;;;8.70;100.00;99699.38;4985844;28;20176;-73
2023/04/24 03:48:14;;;;;;;8.60;5.40;;;;;;;8.69;100.00;99698.56;4985266;28;20397;-73
2023/04/24 03:50:41;;;;;;;10.02;6.10;;;;;;;8.68;100.00;99701.28;4985863;28;20077;-72
2023/04/24 03:53:07;;;;;;;12.75;6.97;;;;;;;8.67;100.00;99702.22;4983333;28;20045;-71
2023/04/24 03:55:34;;;;;;;13.65;7.70;;;;;;;8.67;100.00;99710.13;4981677;28;22083;-72
2023/04/24 03:57:59;;;;;;;14.60;8.30;;;;;;;8.64;100.00;99705.00;4982978;28;20034;-71
2023/04/24 04:00:25;;;;;;;15.35;8.30;;;;;;;8.61;100.00;99713.09;4984343;28;20038;-72
2023/04/24 04:02:51;;;;;;;12.30;7.03;;;;;;;8.58;100.00;99707.97;4999041;28;20083;-73
2023/04/24 04:05:17;;;;;;;12.27;6.78;;;;;;;8.55;100.00;99704.59;4998575;28;20054;-73
2023/04/24 04:07:42;;;;;;;12.18;7.10;;;;;;;8.55;100.00;99715.13;4983247;28;20037;-73
2023/04/24 04:10:08;;;;;;;9.13;5.43;;;;;;;8.52;100.00;99712.69;4983276;28;20508;-73
2023/04/24 04:12:36;;;;;;;11.02;4.82;;;;;;;8.50;100.00;99711.84;4980847;28;20065;-73
2023/04/24 04:15:02;;;;;;;7.60;4.35;;;;;;;8.48;100.00;99710.25;4985180;28;20227;-73
2023/04/24 04:17:27;;;;;;;5.75;3.90;;;;;;;8.45;100.00;99716.56;4984550;28;20065;-73
2023/04/24 04:19:53;;;;;;;7.00;3.97;;;;;;;8.42;100.00;99714.06;4983737;28;20428;-71
2023/04/24 04:22:19;;;;;;;6.05;3.92;;;;;;;8.40;100.00;99721.22;4981285;28;20219;-72
2023/04/24 04:24:46;;;;;;;6.47;4.13;;;;;;;8.39;100.00;99720.38;4979429;28;20037;-72
2023/04/24 04:27:12;;;;;;;8.77;4.30;;;;;;;8.38;100.00;99721.31;4982206;28;20091;-72
2023/04/24 04:29:38;;;;;;;7.65;4.88;;;;;;;8.36;100.00;99735.50;4981055;28;20045;-72
2023/04/24 04:32:03;;;;;;;8.50;5.07;;;;;;;8.34;100.00;99740.03;4981273;28;20042;-72
2023/04/24 04:34:29;;;;;;;6.85;4.32;;;;;;;8.33;100.00;99740.97;4980228;28;20136;-73
2023/04/24 04:36:55;;;;;;;6.95;4.28;;;;;;;8.30;100.00;99736.69;4982649;28;21896;-72
2023/04/24 04:39:21;;;;;;;4.97;3.15;;;;;;;8.30;100.00;99749.88;4983653;28;20036;-70
2023/04/24 04:41:48;;;;;;;4.65;3.03;;;;;;;8.27;100.00;99742.97;4982558;28;20072;-72
2023/04/24 04:44:14;;;;;;;2.60;1.70;;;;;;;8.25;100.00;99765.97;4980258;28;20057;-72
2023/04/24 04:46:41;;;;;;;1.70;1.45;;;;;;;8.25;100.00;99759.81;4982239;28;20041;-72
2023/04/24 04:49:08;;;;;;;1.90;1.40;;;;;;;8.24;100.00;99766.84;4984983;28;20022;-72
2023/04/24 04:51:34;;;;;;;1.70;1.40;;;;;;;8.23;100.00;99770.44;4983704;28;20041;-73
2023/04/24 04:54:00;;;;;;;1.83;1.63;;;;;;;8.23;100.00;99772.25;4981939;28;20053;-73
2023/04/24 04:56:25;;;;;;;2.25;1.80;;;;;;;8.23;100.00;99777.50;4976276;28;20030;-73
2023/04/24 04:58:51;;;;;;;3.78;1.98;;;;;;;8.23;100.00;99773.06;4982242;28;20069;-72
2023/04/24 05:01:17;;;;;;;3.95;2.75;;;;;;;8.23;100.00;99782.78;4982266;28;20465;-72
2023/04/24 05:03:42;;;;;;;4.68;2.75;;;;;;;8.23;100.00;99788.91;4985860;28;20062;-73
2023/04/24 05:06:08;;;;;;;7.35;3.40;;;;;;;8.24;100.00;99784.47;4999082;28;20660;-73
2023/04/24 05:08:40;;;;;;;7.75;4.00;;;;;;;8.23;100.00;99790.69;4983814;28;20037;-73
2023/04/24 05:11:06;;;;;;;8.20;4.17;;;;;;;8.25;100.00;99799.38;4978437;28;20026;-72
2023/04/24 05:13:31;;;;;;;12.73;5.22;;;;;;;8.26;100.00;99793.16;4984231;28;20307;-72
2023/04/24 05:15:57;;;;;;;12.52;5.28;;;;;;;8.26;100.00;99808.97;4984948;28;20045;-72
2023/04/24 05:18:23;;;;;;;11.27;5.88;;;;;;;8.29;100.00;99803.56;4984676;28;20131;-73
2023/04/24 05:20:48;;;;;;;11.98;5.97;;;;;;;8.29;100.00;99807.03;4980771;28;20068;-73
2023/04/24 05:23:14;;;;;;;12.07;6.00;;;;;;;8.30;100.00;99813.16;4983584;28;20041;-71
2023/04/24 05:25:40;;;;;;;11.48;6.80;;;;;;;8.32;100.00;99813.09;4983407;28;20046;-72
2023/04/24 05:28:05;;;;;;;12.30;5.95;;;;;;;8.32;100.00;99818.38;4964078;28;20046;-72
2023/04/24 05:30:31;;;;;;;13.13;6.25;;;;;;;8.34;100.00;99827.88;4981844;28;20499;-73
2023/04/24 05:32:56;;;;;;;13.57;6.13;;;;;;;8.34;100.00;99827.88;4995382;28;20077;-73
2023/04/24 05:35:22;;;;;;;13.00;6.85;;;;;;;8.34;100.00;99830.53;4984159;28;20257;-71
2023/04/24 05:37:48;;;;;;;10.60;5.78;;;;;;;8.34;100.00;99841.06;4982311;28;20030;-73
2023/04/24 05:40:13;;;;;;;10.07;5.72;;;;;;;8.33;100.00;99852.56;4996315;28;20073;-72
2023/04/24 05:42:39;;;;;;;8.27;4.10;;;;;;;8.27;100.00;99848.47;4968824;28;20318;-73
2023/04/24 05:45:05;;;;;;;6.05;4.40;;;;;;;8.25;100.00;99860.88;4985258;28;20034;-71
2023/04/24 05:47:31;;;;;;;4.15;3.22;;;;;;;8.23;100.00;99857.44;4979639;28;20108;-71
2023/04/24 05:49:56;;;;;;;3.67;3.22;;;;;;;8.21;100.00;99864.59;4984998;28;20042;-71
2023/04/24 05:52:22;;;;;;;3.35;3.00;;;;;;;8.19;100.00;99871.75;4980748;28;20034;-72
2023/04/24 05:54:50;;;;;;;4.55;3.22;;;;;;;8.20;100.00;99870.81;4983494;28;20769;-73
2023/04/24 05:57:16;;;;;;;4.93;3.47;;;;;;;8.20;100.00;99881.34;4980764;28;20061;-71
2023/04/24 05:59:41;;;;;;;4.13;3.30;;;;;;;8.20;100.00;99886.63;4983111;28;20052;-72
2023/04/24 06:02:07;;;;;;;5.57;3.17;;;;;;;8.20;100.00;99894.53;4997880;28;20584;-72
2023/04/24 06:04:33;;;;;;;5.63;3.30;;;;;;;8.23;100.00;99894.38;4982080;28;20045;-72
2023/04/24 06:06:59;;;;;;;4.38;2.92;;;;;;;8.24;100.00;99906.63;4981759;28;20045;-73
2023/04/24 06:09:25;;;;;;;3.20;2.45;;;;;;;8.21;100.00;99908.56;4979702;28;20029;-71
2023/04/24 06:11:52;;;;;;;3.25;2.05;;;;;;;8.19;100.00;99920.97;4995456;28;20397;-73
2023/04/24 06:14:18;;;;;;;2.72;1.73;;;;;;;8.17;100.00;99918.41;4979386;28;20699;-73
2023/04/24 06:16:44;;;;;;;3.67;2.15;;;;;;;8.17;100.00;99926.31;4984915;28;20091;-73
2023/04/24 06:19:10;;;;;;;2.35;1.73;;;;;;;8.15;100.00;99930.81;4984899;28;20038;-73
2023/04/24 06:21:41;;;;;;;1.80;1.42;;;;;;;8.12;100.00;99928.34;4956547;28;20161;-74
2023/04/24 06:24:07;;;;;;;1.92;1.60;;;;;;;8.12;100.00;99928.34;4964888;28;20037;-73
2023/04/24 06:26:32;;;;;;;3.55;1.90;;;;;;;8.12;100.00;99933.63;4983316;28;21039;-73
2023/04/24 06:28:59;;;;;;;2.60;2.08;;;;;;;8.12;100.00;99937.09;4993935;28;20216;-73
2023/04/24 06:31:25;;;;;;;2.60;2.10;;;;;;;8.09;100.00;99932.00;4981587;28;20541;-73
2023/04/24 06:33:51;;;;;;;3.42;2.45;;;;;;;8.07;100.00;99947.00;4983137;28;20042;-73
2023/04/24 06:36:16;;;;;;;5.95;3.15;;;;;;;8.04;100.00;99951.59;4982505;28;20626;-72
2023/04/24 06:38:42;;;;;;;6.18;3.80;;;;;;;8.01;100.00;99947.34;4981503;28;20037;-71
2023/04/24 06:41:08;;;;;;;9.68;4.32;;;;;;;7.97;100.00;99948.41;4998675;28;20044;-72
2023/04/24 06:43:34;;;;;;;9.27;4.97;;;;;;;7.94;100.00;99959.09;4983961;28;20050;-71
2023/04/24 06:46:00;;;;;;;13.48;6.53;;;;;;;7.93;100.00;99960.03;4984991;28;20034;-71
2023/04/24 06:48:26;;;;;;;12.95;7.13;;;;;;;7.89;100.00;99956.69;4985007;28;20247;-73
2023/04/24 06:50:52;;;;;;;16.95;7.47;;;;;;;7.86;100.00;99962.94;4979918;28;20041;-73
2023/04/24 06:53:17;;;;;;;18.45;8.75;;;;;;;7.83;100.00;99960.47;4980226;28;20576;-73
2023/04/24 06:55:44;;;;;;;21.00;8.70;;;;;;;7.82;100.00;99971.94;4983107;28;20382;-73
2023/04/24 06:58:10;;;;;;;23.50;8.98;;;;;;;7.80;100.00;99975.59;4964357;28;21811;-73
2023/04/24 07:00:36;;;;;;;19.83;9.30;;;;;;;7.75;100.00;99976.63;4982612;28;20034;-73
2023/04/24 07:03:02;;;;;;;18.80;8.05;;;;;;;7.73;100.00;99983.78;4982400;28;20116;-72
2023/04/24 07:05:28;;;;;;;13.77;7.28;;;;;;;7.72;100.00;99992.59;4982336;28;20621;-73
2023/04/24 07:07:53;;;;;;;13.75;7.13;;;;;;;7.70;100.00;99991.84;4984108;28;20133;-73
2023/04/24 07:10:19;;;;;;;12.32;7.30;;;;;;;7.70;100.00;99985.69;4981903;28;20045;-75
2023/04/24 07:12:46;;;;;;;17.80;7.68;;;;;;;7.68;100.00;99993.66;4977123;28;20035;-74
2023/04/24 07:15:12;;;;;;;15.82;8.15;;;;;;;7.68;100.00;99991.03;4998474;28;20084;-74
2023/04/24 07:17:38;;;;;;;15.57;8.07;;;;;;;7.66;100.00;99998.16;4983529;28;22620;-73
2023/04/24 07:20:05;;;;;;;19.23;9.20;;;;;;;7.67;100.00;100002.50;4983124;28;20158;-73
2023/04/24 07:22:31;;;;;;;19.88;9.95;;;;;;;7.63;100.00;100014.09;4983039;28;20060;-73
2023/04/24 07:24:56;;;;;;;19.33;10.10;;;;;;;7.63;100.00;100019.38;4981497;28;20124;-73
2023/04/24 07:27:22;;;;;;;22.05;11.40;;;;;;;7.61;100.00;100029.13;4997805;28;20112;-74
2023/04/24 07:29:47;;;;;;;21.38;11.10;;;;;;;7.61;100.00;100034.41;4981516;28;22131;-72
2023/04/24 07:32:13;;;;;;;20.40;10.07;;;;;;;7.60;100.00;100037.97;4981193;28;20104;-75
2023/04/24 07:34:39;;;;;;;15.25;9.07;;;;;;;7.58;100.00;100045.94;4982497;28;20128;-72
2023/04/24 07:37:05;;;;;;;20.58;9.57;;;;;;;7.55;100.00;100047.84;4980027;28;20504;-73
2023/04/24 07:39:33;;;;;;;21.08;9.60;;;;;;;7.53;100.00;100047.06;4982768;28;20061;-73
2023/04/24 07:41:59;;;;;;;17.83;9.05;;;;;;;7.53;100.00;100052.34;4979558;28;20943;-74
2023/04/24 07:44:24;;;;;;;15.90;8.13;;;;;;;7.52;100.00;100067.28;4980792;28;20457;-74
2023/04/24 07:46:50;;;;;;;16.30;8.90;;;;;;;7.52;100.00;100061.16;4973970;28;20045;-73
2023/04/24 07:49:16;;;;;;;16.10;7.63;;;;;;;7.52;100.00;100071.72;4980870;28;20045;-73
2023/04/24 07:51:41;;;;;;;14.80;7.78;;;;;;;7.52;100.00;100079.59;4979827;28;20045;-73
2023/04/24 07:54:07;;;;;;;13.55;6.60;;;;;;;7.53;100.00;100081.31;4978406;28;20042;-74
2023/04/24 07:56:33;;;;;;;13.13;6.13;;;;;;;7.54;100.00;100080.38;4981952;28;20029;-72
2023/04/24 07:58:59;;;;;;;13.40;5.88;;;;;;;7.56;100.00;100089.06;4983445;28;20041;-72
2023/04/24 08:01:24;;;;;;;11.27;6.32;;;;;;;7.58;100.00;100084.59;4982563;28;20042;-72
2023/04/24 08:03:51;;;;;;;10.00;6.15;;;;;;;7.64;100.00;100086.97;4980483;28;20770;-72
2023/04/24 08:06:16;;;;;;;9.63;5.93;;;;;;;7.71;100.00;100091.03;4991778;28;20048;-73
2023/04/24 08:08:42;;;;;;;10.05;5.78;;;;;;;7.77;100.00;100092.53;4996858;28;21379;-73
2023/04/24 08:11:07;;;;;;;9.60;5.97;;;;;;;7.87;100.00;100103.50;4981531;28;20872;-73
2023/04/24 08:13:33;;;;;;;8.40;5.63;;;;;;;7.95;100.00;100100.53;4982982;28;20033;-73
2023/04/24 08:15:58;;;;;;;10.02;5.38;;;;;;;8.00;100.00;100109.03;4982142;28;20084;-73
2023/04/24 08:18:27;;;;;;;9.57;5.72;;;;;;;8.06;100.00;100100.00;4978792;28;20026;-73
2023/04/24 08:20:53;;;;;;;8.50;5.50;;;;;;;8.09;100.00;100119.19;4977692;28;20026;-74
2023/04/24 08:23:18;;;;;;;8.55;5.13;;;;;;;8.11;100.00;100119.09;4981636;28;20045;-73
2023/04/24 08:25:44;;;;;;;9.82;5.15;;;;;;;8.08;100.00;100122.75;4981025;28;20453;-74
2023/04/24 08:28:10;;;;;;;7.07;4.88;;;;;;;8.06;100.00;100129.00;4992413;28;20042;-74
2023/04/24 08:30:36;;;;;;;8.10;4.88;;;;;;;8.04;100.00;100131.72;4959648;28;20038;-73
2023/04/24 08:33:02;;;;;;;6.20;4.30;;;;;;;8.01;100.00;100143.25;4975785;28;20124;-72
2023/04/24 08:35:28;;;;;;;6.80;4.32;;;;;;;7.96;100.00;100145.22;4977204;28;20778;-72
2023/04/24 08:37:53;;;;;;;9.05;4.53;;;;;;;7.99;100.00;100149.50;4975239;28;20849;-73
2023/04/24 08:40:22;;;;;;;6.82;3.67;;;;;;;8.00;100.00;100145.94;4993584;28;20048;-74
2023/04/24 08:42:49;;;;;;;6.60;3.85;;;;;;;8.02;100.00;100165.22;4977929;28;20133;-73
2023/04/24 08:45:15;;;;;;;7.10;3.50;;;;;;;8.01;100.00;100159.06;4996858;28;20049;-74
2023/04/24 08:47:41;;;;;;;8.65;4.07;;;;;;;8.06;100.00;100171.19;4947256;28;20826;-73
2023/04/24 08:50:08;;;;;;;8.25;3.55;;;;;;;8.10;100.00;100164.84;4961837;28;20045;-73
2023/04/24 08:52:34;;;;;;;5.75;3.33;;;;;;;8.13;100.00;100175.25;4981105;28;20683;-75
2023/04/24 08:55:01;;;;;;;5.43;3.67;;;;;;;8.20;100.00;100170.53;4960759;28;20072;-72
2023/04/24 08:57:27;;;;;;;5.82;2.97;;;;;;;8.28;100.00;100185.09;4949270;28;20022;-74
2023/04/24 08:59:53;;;;;;;8.35;2.63;;;;;;;8.37;100.00;100188.22;4947304;28;20120;-75
2023/04/24 09:02:19;;;;;;;6.53;3.13;;;;;;;8.43;100.00;100186.16;4997968;28;20042;-72
2023/04/24 09:04:46;;;;;;;9.65;2.90;;;;;;;8.52;100.00;100187.56;4979316;28;20038;-75
2023/04/24 09:07:12;;;;;;;4.80;2.75;;;;;;;8.60;100.00;100183.69;4981466;28;20042;-74
2023/04/24 09:09:38;;;;;;;5.30;2.90;;;;;;;8.71;100.00;100194.56;4981247;28;20045;-73
2023/04/24 09:12:04;;;;;;;4.45;2.60;;;;;;;8.82;100.00;100187.00;4962960;28;20347;-73
2023/04/24 09:14:33;;;;;;;6.53;2.75;;;;;;;8.89;100.00;100200.75;4978379;28;20133;-72
2023/04/24 09:16:59;;;;;;;5.78;2.75;;;;;;;8.85;100.00;100206.25;4994830;28;20038;-73
2023/04/24 09:19:24;;;;;;;6.35;3.08;;;;;;;8.79;100.00;100215.31;4979645;28;20667;-74
2023/04/24 09:21:52;;;;;;;7.55;2.80;;;;;;;8.71;100.00;100215.69;4978139;28;20042;-74
2023/04/24 09:24:24;;;;;;;7.25;2.80;;;;;;;8.63;100.00;100225.75;4978959;28;20040;-74
2023/04/24 09:27:01;;;;;;;6.07;2.88;;;;;;;8.55;100.00;100226.97;4964508;28;20034;-74
2023/04/24 09:29:27;;;;;;;4.28;2.30;;;;;;;8.52;100.00;100232.41;4992809;28;20258;-73
2023/04/24 09:31:53;;;;;;;5.07;2.38;;;;;;;8.48;100.00;100225.50;4979926;28;20965;-74
2023/04/24 09:34:26;;;;;;;4.55;2.13;;;;;;;8.48;100.00;100229.94;4979811;28;20046;-72
2023/04/24 09:36:52;;;;;;;7.53;2.40;;;;;;;8.41;100.00;100245.19;4975515;28;20050;-72
2023/04/24 09:39:24;;;;;;;5.82;2.05;;;;;;;8.35;100.00;100245.47;4958508;28;20116;-72
2023/04/24 09:41:50;;;;;;;4.35;2.10;;;;;;;8.29;100.00;100252.72;4977276;28;22030;-72
2023/04/24 09:44:19;;;;;;;3.78;1.80;;;;;;;8.22;100.00;100246.03;4979614;28;20172;-72
2023/04/24 09:46:49;;;;;;;2.97;1.65;;;;;;;8.18;100.00;100254.16;4976495;28;20049;-76
2023/04/24 09:49:16;;;;;;;4.55;1.80;;;;;;;8.15;100.00;100260.41;4980063;28;20523;-75
2023/04/24 09:51:42;;;;;;;4.47;1.75;;;;;;;8.14;100.00;100272.75;4979593;28;20038;-73
2023/04/24 09:54:16;;;;;;;3.05;1.75;;;;;;;8.17;100.00;100274.38;4976792;28;20034;-73
2023/04/24 09:56:46;;;;;;;2.88;1.70;;;;;;;8.24;100.00;100274.97;4977077;28;20076;-74
2023/04/24 09:59:16;;;;;;;5.22;1.95;;;;;;;8.29;100.00;100280.91;4975680;28;20041;-74
2023/04/24 10:01:42;;;;;;;5.57;2.10;;;;;;;8.28;100.00;100280.03;4978545;28;20042;-73
2023/04/24 10:04:22;;;;;;;3.45;1.85;;;;;;;8.30;100.00;100279.97;4980054;28;20052;-74
2023/04/24 10:06:49;;;;;;;8.60;1.35;;;;;;;8.31;100.00;100291.38;4978062;28;20046;-74
2023/04/24 10:09:19;;;;;;;5.00;1.85;;;;;;;8.32;100.00;100295.75;4973703;28;20132;-74
2023/04/24 10:11:46;;;;;;;5.18;1.48;;;;;;;8.33;100.00;100298.28;4990609;28;20049;-74
2023/04/24 10:14:15;;;;;;;4.72;1.67;;;;;;;8.34;100.00;100305.28;4977978;28;20049;-73
2023/04/24 10:16:41;;;;;;;5.72;1.60;;;;;;;8.34;100.00;100307.06;4976093;28;20028;-72
2023/04/24 10:19:07;;;;;;;2.80;1.50;;;;;;;8.36;100.00;100297.28;4982251;28;20048;-72
2023/04/24 10:21:34;;;;;;;4.75;1.20;;;;;;;8.41;100.00;100303.22;4981602;28;20187;-72
2023/04/24 10:24:03;;;;;;;3.58;1.52;;;;;;;8.42;100.00;100304.94;4981418;28;21247;-72
2023/04/24 10:26:31;;;;;;;6.35;1.50;;;;;;;8.46;100.00;100308.28;4980727;28;20487;-75
2023/04/24 10:28:57;;;;;;;2.90;1.45;;;;;;;8.53;100.00;100318.53;4978019;28;20513;-73
2023/04/24 10:31:23;;;;;;;4.07;1.23;;;;;;;8.59;100.00;100313.88;4980934;28;20547;-72
2023/04/24 10:33:50;;;;;;;1.85;1.10;;;;;;;8.64;100.00;100314.53;4976344;28;20034;-72
2023/04/24 10:36:16;;;;;;;4.90;1.50;;;;;;;8.67;100.00;100311.78;4991723;28;20034;-73
2023/04/24 10:38:42;;;;;;;4.63;1.45;;;;;;;8.73;100.00;100318.53;4974685;28;20079;-73
2023/04/24 10:41:19;;;;;;;3.20;1.30;;;;;;;8.76;100.00;100324.53;4978747;28;22127;-73
2023/04/24 10:43:45;;;;;;;4.00;1.30;;;;;;;8.78;100.00;100327.13;4983474;28;20050;-72
2023/04/24 10:46:19;;;;;;;6.05;1.20;;;;;;;8.78;100.00;100333.22;4982341;28;20124;-72
2023/04/24 10:48:52;;;;;;;3.58;1.25;;;;;;;8.77;100.00;100341.25;4983598;28;22112;-72
2023/04/24 10:51:18;;;;;;;3.38;1.38;;;;;;;8.75;100.00;100340.44;4983617;28;20132;-72
2023/04/24 10:53:44;;;;;;;2.38;1.15;;;;;;;8.69;100.00;100352.16;4999173;28;20046;-72
2023/04/24 10:56:10;;;;;;;2.63;1.20;;;;;;;8.59;100.00;100353.47;4985367;28;20053;-72
2023/04/24 10:58:37;;;;;;;1.65;1.17;;;;;;;8.46;100.00;100358.41;4983860;28;20056;-72
2023/04/24 11:01:02;;;;;;;4.07;1.27;;;;;;;8.35;100.00;100358.91;4999530;28;20038;-72
2023/04/24 11:03:30;;;;;;;3.15;1.38;;;;;;;8.27;100.00;100360.09;4984058;28;20092;-72
2023/04/24 11:06:03;;;;;;;2.00;1.10;;;;;;;8.20;100.00;100363.91;4983751;28;20227;-72
2023/04/24 11:08:33;;;;;;;1.30;1.20;;;;;;;8.18;100.00;100360.50;4967567;28;20034;-72
2023/04/24 11:11:03;;;;;;;2.67;1.20;;;;;;;8.21;100.00;100373.53;4991021;28;20038;-72
2023/04/24 11:13:54;;;;;;;2.25;1.08;;;;;;;8.27;100.00;100362.72;4976127;28;20038;-72
2023/04/24 11:16:21;;;;;;;0.90;0.90;;;;;;;8.31;100.00;100376.63;4978562;28;20030;-73
2023/04/24 11:19:01;;;;;;;2.88;1.13;;;;;;;8.40;100.00;100370.09;4978264;28;20474;-73
2023/04/24 11:21:51;;;;;;;2.17;1.00;;;;;;;8.48;100.00;100372.38;4978155;28;20034;-74
2023/04/24 11:24:35;;;;;;;3.80;1.08;;;;;;;8.49;100.00;100382.88;4973924;28;20177;-73